createdAt,value
2023-02-27T00:01:05.068Z,103224.84
2023-02-27T00:03:32.940Z,103227.41
2023-02-27T00:06:00.876Z,103222.94
2023-02-27T00:08:28.834Z,103221.16
2023-02-27T00:10:58.111Z,103229.00
2023-02-27T00:13:25.988Z,103216.59
2023-02-27T00:15:56.393Z,103212.13
2023-02-27T00:18:24.332Z,103226.19
2023-02-27T00:20:52.227Z,103222.56
2023-02-27T00:23:20.080Z,103222.53
2023-02-27T00:25:47.980Z,103226.94
2023-02-27T00:28:17.264Z,103232.19
2023-02-27T00:30:45.174Z,103230.28
2023-02-27T00:33:13.060Z,103229.38
2023-02-27T00:35:40.947Z,103238.97
2023-02-27T00:38:08.830Z,103240.78
2023-02-27T00:40:36.899Z,103232.91
2023-02-27T00:43:04.827Z,103246.06
2023-02-27T00:45:34.066Z,103239.84
2023-02-27T00:48:01.956Z,103246.06
2023-02-27T00:50:29.847Z,103254.84
2023-02-27T00:52:57.725Z,103260.06
2023-02-27T00:55:27.213Z,103260.00
2023-02-27T00:57:55.377Z,103256.47
2023-02-27T01:00:23.433Z,103255.56
2023-02-27T01:02:52.760Z,103256.47
2023-02-27T01:05:20.825Z,103258.19
2023-02-27T01:07:48.675Z,103250.19
2023-02-27T01:10:16.606Z,103262.44
2023-02-27T01:12:44.470Z,103252.63
2023-02-27T01:15:12.448Z,103260.50
2023-02-27T01:17:40.474Z,103262.16
2023-02-27T01:20:13.620Z,103255.97
2023-02-27T01:22:41.520Z,103254.13
2023-02-27T01:25:09.986Z,103252.38
2023-02-27T01:27:37.828Z,103248.88
2023-02-27T01:30:06.956Z,103249.88
2023-02-27T01:32:34.876Z,103239.38
2023-02-27T01:35:02.769Z,103245.50
2023-02-27T01:37:32.084Z,103246.38
2023-02-27T01:39:59.930Z,103240.28
2023-02-27T01:42:28.667Z,103236.00
2023-02-27T01:45:21.490Z,103234.38
2023-02-27T01:47:51.021Z,103227.41
2023-02-27T01:50:19.044Z,103245.03
2023-02-27T01:52:50.427Z,103244.22
2023-02-27T01:55:18.275Z,103248.50
2023-02-27T01:57:46.508Z,103248.47
2023-02-27T02:00:15.014Z,103234.38
2023-02-27T02:02:46.076Z,103243.13
2023-02-27T02:05:13.965Z,103239.59
2023-02-27T02:07:41.857Z,103237.66
2023-02-27T02:10:12.266Z,103239.31
2023-02-27T02:12:40.121Z,103241.78
2023-02-27T02:15:09.098Z,103231.97
2023-02-27T02:17:40.206Z,103242.56
2023-02-27T02:20:54.241Z,103233.66
2023-02-27T02:24:09.327Z,103231.69
2023-02-27T02:26:49.204Z,103227.22
2023-02-27T02:29:55.961Z,103232.41
2023-02-27T02:32:52.935Z,103241.09
2023-02-27T02:35:54.143Z,103246.34
2023-02-27T02:38:52.333Z,103214.28
2023-02-27T02:41:24.158Z,103227.81
2023-02-27T02:43:58.596Z,103233.16
2023-02-27T02:46:30.559Z,103225.91
2023-02-27T02:49:01.614Z,103230.53
2023-02-27T02:51:32.697Z,103224.41
2023-02-27T02:54:03.942Z,103231.44
2023-02-27T02:56:33.825Z,103230.53
2023-02-27T02:59:04.476Z,103226.09
2023-02-27T03:01:33.792Z,103228.59
2023-02-27T03:04:04.841Z,103232.13
2023-02-27T03:06:33.708Z,103220.53
2023-02-27T03:09:05.834Z,103230.41
2023-02-27T03:11:35.966Z,103222.44
2023-02-27T03:14:06.890Z,103229.38
2023-02-27T03:16:36.214Z,103239.72
2023-02-27T03:19:06.558Z,103189.78
2023-02-27T03:21:36.669Z,103239.53
2023-02-27T03:24:07.222Z,103223.56
2023-02-27T03:26:36.544Z,103236.00
2023-02-27T03:29:07.707Z,103237.63
2023-02-27T03:31:38.711Z,103239.25
2023-02-27T03:34:13.539Z,103242.75
2023-02-27T03:36:45.761Z,103228.53
2023-02-27T03:39:21.592Z,103243.69
2023-02-27T03:41:51.397Z,103243.78
2023-02-27T03:44:25.304Z,103235.16
2023-02-27T03:46:53.179Z,103232.53
2023-02-27T03:49:21.141Z,103230.75
2023-02-27T03:51:49.020Z,103230.69
2023-02-27T03:54:20.233Z,103221.88
2023-02-27T03:56:50.866Z,103216.44
2023-02-27T03:59:18.791Z,103230.63
2023-02-27T04:01:46.711Z,103213.81
2023-02-27T04:04:17.780Z,103225.31
2023-02-27T04:07:04.443Z,103201.28
2023-02-27T04:09:39.857Z,103218.09
2023-02-27T04:12:17.246Z,103222.44
2023-02-27T04:14:51.169Z,103222.41
2023-02-27T04:17:25.538Z,103222.28
2023-02-27T04:20:18.883Z,103225.69
2023-02-27T04:22:48.322Z,103222.09
2023-02-27T04:25:33.187Z,103231.75
2023-02-27T04:28:06.394Z,103234.34
2023-02-27T04:30:38.824Z,103228.19
2023-02-27T04:33:09.051Z,103238.69
2023-02-27T04:35:40.322Z,103235.22
2023-02-27T04:38:11.933Z,103230.06
2023-02-27T04:40:44.202Z,103227.53
2023-02-27T04:43:12.128Z,103229.22
2023-02-27T04:45:41.447Z,103228.34
2023-02-27T04:48:12.166Z,103233.56
2023-02-27T04:50:42.707Z,103232.72
2023-02-27T04:53:13.058Z,103233.59
2023-02-27T04:55:43.403Z,103227.44
2023-02-27T04:58:13.932Z,103236.25
2023-02-27T05:00:42.761Z,103239.75
2023-02-27T05:03:12.831Z,103215.66
2023-02-27T05:05:41.316Z,103241.31
2023-02-27T05:08:11.120Z,103237.09
2023-02-27T05:10:41.497Z,103223.78
2023-02-27T05:13:11.835Z,103237.25
2023-02-27T05:15:40.688Z,103246.97
2023-02-27T05:18:09.659Z,103187.38
2023-02-27T05:20:44.119Z,103237.38
2023-02-27T05:23:15.067Z,103238.28
2023-02-27T05:25:45.775Z,103233.25
2023-02-27T05:28:17.428Z,103237.78
2023-02-27T05:30:49.541Z,103232.72
2023-02-27T05:33:19.214Z,103239.03
2023-02-27T05:35:48.927Z,103221.38
2023-02-27T05:38:19.680Z,103253.44
2023-02-27T05:40:49.162Z,103225.28
2023-02-27T05:43:20.284Z,103232.59
2023-02-27T05:45:49.153Z,103239.66
2023-02-27T05:48:19.856Z,103243.25
2023-02-27T05:50:47.776Z,103224.72
2023-02-27T05:53:16.480Z,103230.19
2023-02-27T05:55:44.965Z,103232.88
2023-02-27T05:58:15.933Z,103229.41
2023-02-27T06:00:47.175Z,103232.97
2023-02-27T06:03:15.134Z,103221.50
2023-02-27T06:05:43.448Z,103227.72
2023-02-27T06:08:11.709Z,103230.41
2023-02-27T06:10:39.607Z,103227.81
2023-02-27T06:13:07.529Z,103225.19
2023-02-27T06:15:35.432Z,103232.19
2023-02-27T06:18:04.902Z,103223.44
2023-02-27T06:20:32.842Z,103235.69
2023-02-27T06:23:00.691Z,103238.31
2023-02-27T06:25:28.653Z,103245.31
2023-02-27T06:27:56.526Z,103237.31
2023-02-27T06:30:24.387Z,103238.13
2023-02-27T06:32:52.328Z,103224.97
2023-02-27T06:35:21.603Z,103229.44
2023-02-27T06:37:49.453Z,103242.56
2023-02-27T06:40:19.136Z,103245.06
2023-02-27T06:42:47.159Z,103251.03
2023-02-27T06:45:15.730Z,103257.28
2023-02-27T06:47:43.679Z,103237.88
2023-02-27T06:50:13.485Z,103257.44
2023-02-27T06:52:42.807Z,103252.97
2023-02-27T06:55:11.906Z,103249.56
2023-02-27T06:57:39.816Z,103252.16
2023-02-27T07:00:10.051Z,103249.66
2023-02-27T07:02:38.002Z,103241.78
2023-02-27T07:05:08.184Z,103247.13
2023-02-27T07:07:38.626Z,103246.38
2023-02-27T07:10:11.247Z,103220.91
2023-02-27T07:12:39.338Z,103238.66
2023-02-27T07:15:08.074Z,103248.34
2023-02-27T07:17:36.150Z,103249.22
2023-02-27T07:20:04.321Z,103254.38
2023-02-27T07:22:32.168Z,103239.16
2023-02-27T07:25:00.186Z,103257.75
2023-02-27T07:27:29.442Z,103261.09
2023-02-27T07:29:57.305Z,103263.66
2023-02-27T07:32:25.176Z,103268.91
2023-02-27T07:34:53.135Z,103264.41
2023-02-27T07:37:21.262Z,103260.09
2023-02-27T07:39:49.185Z,103265.44
2023-02-27T07:42:17.074Z,103267.16
2023-02-27T07:44:46.316Z,103273.50
2023-02-27T07:47:14.179Z,103273.69
2023-02-27T07:49:42.073Z,103282.78
2023-02-27T07:52:11.264Z,103272.53
2023-02-27T07:54:39.201Z,103266.53
2023-02-27T07:57:07.330Z,103273.00
2023-02-27T07:59:35.236Z,103271.47
2023-02-27T08:02:04.552Z,103265.47
2023-02-27T08:04:32.451Z,103273.50
2023-02-27T08:07:00.728Z,103274.56
2023-02-27T08:09:28.859Z,103278.13
2023-02-27T08:11:56.750Z,103284.28
2023-02-27T08:14:24.605Z,103287.84
2023-02-27T08:16:52.469Z,103291.38
2023-02-27T08:19:21.693Z,103295.84
2023-02-27T08:21:49.866Z,103290.56
2023-02-27T08:24:19.023Z,103303.94
2023-02-27T08:26:50.059Z,103305.84
2023-02-27T08:29:18.068Z,103233.13
2023-02-27T08:31:46.872Z,103290.13
2023-02-27T08:34:14.897Z,103304.75
2023-02-27T08:36:44.539Z,103271.31
2023-02-27T08:39:12.752Z,103298.19
2023-02-27T08:41:40.871Z,103301.88
2023-02-27T08:44:16.221Z,103285.34
2023-02-27T08:46:44.130Z,103297.19
2023-02-27T08:49:12.035Z,103279.69
2023-02-27T08:51:39.939Z,103287.72
2023-02-27T08:54:09.182Z,103287.78
2023-02-27T08:56:39.300Z,103294.94
2023-02-27T08:59:07.296Z,103290.56
2023-02-27T09:01:35.694Z,103290.59
2023-02-27T09:04:03.787Z,103297.75
2023-02-27T09:06:32.228Z,103290.78
2023-02-27T09:09:00.332Z,103297.94
2023-02-27T09:11:30.128Z,103283.81
2023-02-27T09:13:58.944Z,103301.63
2023-02-27T09:16:27.236Z,103301.69
2023-02-27T09:18:55.361Z,103302.69
2023-02-27T09:21:23.894Z,103306.28
2023-02-27T09:23:51.895Z,103303.78
2023-02-27T09:26:19.741Z,103299.47
2023-02-27T09:28:49.620Z,103289.81
2023-02-27T09:31:17.716Z,103304.94
2023-02-27T09:33:45.687Z,103306.75
2023-02-27T09:36:13.866Z,103291.84
2023-02-27T09:38:41.845Z,103300.72
2023-02-27T09:41:23.614Z,103283.94
2023-02-27T09:43:52.930Z,103301.63
2023-02-27T09:46:21.919Z,103305.25
2023-02-27T09:48:51.775Z,103309.75
2023-02-27T09:51:19.812Z,103301.00
2023-02-27T09:53:48.641Z,103287.75
2023-02-27T09:56:18.558Z,103311.72
2023-02-27T09:58:48.938Z,103306.47
2023-02-27T10:01:21.949Z,103299.41
2023-02-27T10:04:11.108Z,103310.09
2023-02-27T10:06:41.166Z,103300.41
2023-02-27T10:09:15.948Z,103307.53
2023-02-27T10:11:50.398Z,103306.66
2023-02-27T10:16:52.792Z,103302.25
2023-02-27T10:19:24.945Z,103310.25
2023-02-27T10:21:53.122Z,103304.94
2023-02-27T10:24:24.361Z,103252.72
2023-02-27T10:26:52.877Z,103292.56
2023-02-27T10:29:28.396Z,103309.38
2023-02-27T10:32:00.704Z,103297.00
2023-02-27T10:34:28.905Z,103315.56
2023-02-27T10:36:57.942Z,103326.22
2023-02-27T10:39:26.021Z,103318.22
2023-02-27T10:41:53.901Z,103315.53
2023-02-27T10:44:22.067Z,103324.38
2023-02-27T10:46:51.887Z,103297.84
2023-02-27T10:49:22.180Z,103318.16
2023-02-27T10:52:06.077Z,103312.88
2023-02-27T10:54:33.964Z,103311.97
2023-02-27T10:57:02.566Z,103317.28
2023-02-27T10:59:32.628Z,103319.97
2023-02-27T11:02:01.530Z,103325.28
2023-02-27T11:04:35.119Z,103328.81
2023-02-27T11:07:05.838Z,103328.00
2023-02-27T11:09:34.076Z,103324.47
2023-02-27T11:12:20.679Z,103335.97
2023-02-27T11:14:52.775Z,103332.31
2023-02-27T11:17:28.875Z,103325.91
2023-02-27T11:19:58.341Z,103317.72
2023-02-27T11:22:27.333Z,103329.25
2023-02-27T11:25:11.962Z,103325.69
2023-02-27T11:27:39.865Z,103320.13
2023-02-27T11:30:22.536Z,103323.47
2023-02-27T11:32:51.364Z,103310.84
2023-02-27T11:35:24.684Z,103311.00
2023-02-27T11:37:53.119Z,103300.59
2023-02-27T11:40:22.275Z,103311.19
2023-02-27T11:42:50.892Z,103306.03
2023-02-27T11:46:25.634Z,103291.94
2023-02-27T11:48:30.311Z,103292.94
2023-02-27T11:51:19.387Z,103286.84
2023-02-27T11:54:09.546Z,103293.94
2023-02-27T11:56:39.176Z,103275.31
2023-02-27T11:59:14.435Z,103271.59
2023-02-27T12:01:45.577Z,103257.88
2023-02-27T12:04:15.785Z,103263.03
2023-02-27T12:06:46.592Z,103262.19
2023-02-27T12:09:25.022Z,103262.66
2023-02-27T12:11:53.230Z,103260.63
2023-02-27T12:14:24.391Z,103261.59
2023-02-27T12:16:54.123Z,103257.38
2023-02-27T12:19:23.922Z,103261.97
2023-02-27T12:21:54.318Z,103261.31
2023-02-27T12:24:23.449Z,103268.56
2023-02-27T12:26:53.555Z,103250.84
2023-02-27T12:29:26.268Z,103256.19
2023-02-27T12:31:55.467Z,103257.88
2023-02-27T12:34:28.525Z,103251.63
2023-02-27T12:37:01.112Z,103244.63
2023-02-27T12:39:29.587Z,103243.78
2023-02-27T12:42:33.234Z,103244.78
2023-02-27T12:45:28.807Z,103251.03
2023-02-27T12:48:04.968Z,103242.13
2023-02-27T12:50:43.982Z,103241.16
2023-02-27T12:53:35.620Z,103243.91
2023-02-27T12:56:05.449Z,103238.75
2023-02-27T12:58:39.496Z,103225.53
2023-02-27T13:01:13.367Z,103238.88
2023-02-27T13:03:44.569Z,103251.34
2023-02-27T13:06:15.499Z,103236.28
2023-02-27T13:09:11.364Z,103250.38
2023-02-27T13:11:48.094Z,103253.03
2023-02-27T13:14:24.339Z,103237.06
2023-02-27T13:16:54.434Z,103234.44
2023-02-27T13:19:25.461Z,103245.13
2023-02-27T13:21:55.304Z,103246.91
2023-02-27T13:24:26.716Z,103251.38
2023-02-27T13:27:00.540Z,103244.34
2023-02-27T13:29:34.993Z,103247.91
2023-02-27T13:32:06.181Z,103241.69
2023-02-27T13:34:35.838Z,103239.94
2023-02-27T13:37:04.443Z,103247.91
2023-02-27T13:39:41.334Z,103253.22
2023-02-27T13:43:01.948Z,103241.66
2023-02-27T13:45:56.940Z,103236.19
2023-02-27T13:48:47.010Z,103239.72
2023-02-27T13:51:54.976Z,103228.31
2023-02-27T13:54:30.415Z,103232.94
2023-02-27T13:57:21.396Z,103231.47
2023-02-27T13:59:59.851Z,103216.69
2023-02-27T14:02:58.125Z,103186.28
2023-02-27T14:05:31.011Z,103222.00
2023-02-27T14:08:01.285Z,103227.59
2023-02-27T14:10:30.190Z,103232.16
2023-02-27T14:12:59.732Z,103215.31
2023-02-27T14:15:54.284Z,103226.75
2023-02-27T14:18:52.381Z,103230.34
2023-02-27T14:21:52.869Z,103227.75
2023-02-27T14:24:21.210Z,103229.69
2023-02-27T14:26:49.918Z,103233.28
2023-02-27T14:29:21.471Z,103225.41
2023-02-27T14:31:49.369Z,103185.69
2023-02-27T14:34:18.867Z,103234.34
2023-02-27T14:36:50.042Z,103234.34
2023-02-27T14:39:21.037Z,103226.44
2023-02-27T14:41:51.542Z,103230.91
2023-02-27T14:44:21.934Z,103229.09
2023-02-27T14:46:50.010Z,103229.06
2023-02-27T14:49:20.056Z,103223.69
2023-02-27T14:51:47.986Z,103218.19
2023-02-27T14:54:16.937Z,103216.22
2023-02-27T14:56:54.914Z,103219.66
2023-02-27T14:59:30.667Z,103203.66
2023-02-27T15:02:06.025Z,103213.28
2023-02-27T15:04:34.090Z,103208.84
2023-02-27T15:07:02.098Z,103211.53
2023-02-27T15:09:34.248Z,103201.91
2023-02-27T15:12:04.290Z,103211.59
2023-02-27T15:14:36.069Z,103208.94
2023-02-27T15:17:04.103Z,103209.75
2023-02-27T15:19:34.365Z,103213.19
2023-02-27T15:22:05.414Z,103209.69
2023-02-27T15:24:47.780Z,103192.06
2023-02-27T15:27:20.202Z,103203.69
2023-02-27T15:29:52.174Z,103204.72
2023-02-27T15:32:24.721Z,103201.25
2023-02-27T15:34:52.604Z,103205.72
2023-02-27T15:37:22.439Z,103195.13
2023-02-27T15:39:50.796Z,103197.75
2023-02-27T15:42:28.579Z,103202.19
2023-02-27T15:44:58.489Z,103196.84
2023-02-27T15:47:27.540Z,103180.00
2023-02-27T15:50:01.177Z,103173.81
2023-02-27T15:52:32.629Z,103194.16
2023-02-27T15:55:02.185Z,103198.69
2023-02-27T15:57:30.700Z,103196.13
2023-02-27T16:00:00.533Z,103211.22
2023-02-27T16:02:29.996Z,103190.94
2023-02-27T16:04:57.995Z,103206.06
2023-02-27T16:07:26.691Z,103208.78
2023-02-27T16:09:55.933Z,103218.53
2023-02-27T16:12:29.258Z,103212.34
2023-02-27T16:15:21.292Z,103215.06
2023-02-27T16:17:57.660Z,103217.75
2023-02-27T16:20:38.647Z,103216.91
2023-02-27T16:23:07.478Z,103227.56
2023-02-27T16:25:35.350Z,103218.69
2023-02-27T16:28:03.258Z,103217.88
2023-02-27T16:30:33.025Z,103218.72
2023-02-27T16:33:01.987Z,103227.63
2023-02-27T16:35:30.529Z,103200.19
2023-02-27T16:38:01.540Z,103207.25
2023-02-27T16:40:29.868Z,103218.78
2023-02-27T16:42:57.894Z,103217.88
2023-02-27T16:45:26.740Z,103213.47
2023-02-27T16:47:57.068Z,103214.34
2023-02-27T16:50:26.132Z,103219.66
2023-02-27T16:52:54.017Z,103217.00
2023-02-27T16:55:21.942Z,103215.25
2023-02-27T16:57:49.851Z,103220.56
2023-02-27T17:00:18.742Z,103227.69
2023-02-27T17:02:48.309Z,103226.78
2023-02-27T17:05:17.837Z,103223.28
2023-02-27T17:07:45.862Z,103218.81
2023-02-27T17:10:15.368Z,103213.53
2023-02-27T17:12:43.988Z,103220.63
2023-02-27T17:15:12.134Z,103223.28
2023-02-27T17:17:40.306Z,103221.53
2023-02-27T17:20:10.383Z,103219.78
2023-02-27T17:22:40.072Z,103226.84
2023-02-27T17:25:09.329Z,103235.72
2023-02-27T17:27:37.288Z,103235.75
2023-02-27T17:30:05.676Z,103238.41
2023-02-27T17:32:34.580Z,103228.69
2023-02-27T17:35:02.427Z,103228.69
2023-02-27T17:37:30.471Z,103240.22
2023-02-27T17:39:59.718Z,103237.56
2023-02-27T17:42:27.794Z,103238.44
2023-02-27T17:44:55.670Z,103242.88
2023-02-27T17:47:23.552Z,103242.88
2023-02-27T17:49:51.401Z,103248.22
2023-02-27T17:52:19.575Z,103251.75
2023-02-27T17:54:47.511Z,103257.06
2023-02-27T17:57:16.825Z,103262.41
2023-02-27T17:59:44.757Z,103253.56
2023-02-27T18:02:12.869Z,103262.41
2023-02-27T18:04:40.727Z,103263.31
2023-02-27T18:07:08.641Z,103265.06
2023-02-27T18:09:36.564Z,103273.03
2023-02-27T18:12:04.696Z,103265.09
2023-02-27T18:14:34.944Z,103275.69
2023-02-27T18:17:02.787Z,103268.63
2023-02-27T18:19:32.442Z,103266.84
2023-02-27T18:22:00.644Z,103263.31
2023-02-27T18:24:28.547Z,103270.41
2023-02-27T18:26:56.447Z,103271.28
2023-02-27T18:29:24.317Z,103271.28
2023-02-27T18:31:54.879Z,103256.22
2023-02-27T18:34:22.787Z,103279.25
2023-02-27T18:36:51.875Z,103280.16
2023-02-27T18:39:19.796Z,103282.81
2023-02-27T18:41:47.746Z,103282.81
2023-02-27T18:44:15.633Z,103284.56
2023-02-27T18:46:43.683Z,103281.94
2023-02-27T18:49:13.270Z,103292.56
2023-02-27T18:51:41.173Z,103285.47
2023-02-27T18:54:09.062Z,103281.03
2023-02-27T18:56:36.991Z,103282.81
2023-02-27T18:59:06.655Z,103281.91
2023-02-27T19:01:35.160Z,103288.13
2023-02-27T19:04:04.872Z,103281.06
2023-02-27T19:06:34.616Z,103283.69
2023-02-27T19:09:02.528Z,103280.16
2023-02-27T19:11:33.285Z,103272.22
2023-02-27T19:14:01.449Z,103269.53
2023-02-27T19:16:29.647Z,103278.41
2023-02-27T19:18:57.910Z,103277.53
2023-02-27T19:21:25.838Z,103280.16
2023-02-27T19:23:55.123Z,103277.50
2023-02-27T19:26:23.312Z,103282.84
2023-02-27T19:28:51.867Z,103284.59
2023-02-27T19:31:19.816Z,103282.84
2023-02-27T19:33:47.846Z,103279.25
2023-02-27T19:36:16.533Z,103280.16
2023-02-27T19:38:44.442Z,103281.94
2023-02-27T19:41:14.228Z,103277.53
2023-02-27T19:43:42.146Z,103283.66
2023-02-27T19:46:10.732Z,103291.66
2023-02-27T19:48:38.694Z,103279.28
2023-02-27T19:51:06.705Z,103281.03
2023-02-27T19:53:35.696Z,103289.00
2023-02-27T19:56:04.603Z,103292.53
2023-02-27T19:58:33.962Z,103285.44
2023-02-27T20:01:01.882Z,103293.41
2023-02-27T20:03:30.133Z,103296.94
2023-02-27T20:05:58.062Z,103294.22
2023-02-27T20:08:25.985Z,103306.63
2023-02-27T20:10:56.965Z,103297.72
2023-02-27T20:13:24.850Z,103297.69
2023-02-27T20:16:03.546Z,103294.13
2023-02-27T20:18:32.910Z,103301.19
2023-02-27T20:21:02.006Z,103302.06
2023-02-27T20:23:29.870Z,103307.34
2023-02-27T20:25:57.735Z,103309.13
2023-02-27T20:28:25.625Z,103302.91
2023-02-27T20:30:53.484Z,103305.56
2023-02-27T20:33:22.706Z,103306.50
2023-02-27T20:35:50.611Z,103309.13
2023-02-27T20:38:19.978Z,103312.69
2023-02-27T20:40:47.817Z,103301.22
2023-02-27T20:43:15.665Z,103307.44
2023-02-27T20:45:43.566Z,103310.97
2023-02-27T20:48:11.436Z,103308.31
2023-02-27T20:50:40.696Z,103235.69
2023-02-27T20:53:08.629Z,103307.44
2023-02-27T20:55:36.454Z,103305.72
2023-02-27T20:58:04.377Z,103311.03
2023-02-27T21:00:32.255Z,103310.13
2023-02-27T21:03:00.824Z,103320.75
2023-02-27T21:05:28.731Z,103309.28
2023-02-27T21:07:58.027Z,103308.34
2023-02-27T21:10:25.959Z,103309.28
2023-02-27T21:12:53.825Z,103315.44
2023-02-27T21:15:21.725Z,103318.97
2023-02-27T21:17:49.553Z,103315.41
2023-02-27T21:20:17.473Z,103320.69
2023-02-27T21:22:45.344Z,103323.28
2023-02-27T21:25:15.125Z,103329.44
2023-02-27T21:27:43.089Z,103324.97
2023-02-27T21:30:12.366Z,103336.44
2023-02-27T21:32:40.233Z,103331.97
2023-02-27T21:35:08.664Z,103338.13
2023-02-27T21:37:36.536Z,103340.75
2023-02-27T21:40:04.765Z,103341.66
2023-02-27T21:42:34.009Z,103299.03
2023-02-27T21:45:01.901Z,103346.06
2023-02-27T21:47:30.131Z,103339.88
2023-02-27T21:49:57.980Z,103346.97
2023-02-27T21:52:25.862Z,103341.69
2023-02-27T21:54:54.279Z,103342.53
2023-02-27T21:57:23.028Z,103339.88
2023-02-27T21:59:52.498Z,103346.13
2023-02-27T22:02:20.389Z,103342.63
2023-02-27T22:04:48.320Z,103343.53
2023-02-27T22:07:16.203Z,103341.81
2023-02-27T22:09:44.138Z,103343.59
2023-02-27T22:12:12.557Z,103348.94
2023-02-27T22:14:43.218Z,103345.41
2023-02-27T22:17:12.482Z,103339.28
2023-02-27T22:19:40.335Z,103338.41
2023-02-27T22:22:08.220Z,103340.19
2023-02-27T22:24:36.082Z,103343.75
2023-02-27T22:27:04.476Z,103353.47
2023-02-27T22:29:32.657Z,103347.31
2023-02-27T22:32:00.595Z,103355.28
2023-02-27T22:34:29.903Z,103360.59
2023-02-27T22:36:58.033Z,103363.28
2023-02-27T22:39:25.904Z,103358.84
2023-02-27T22:41:54.885Z,103364.16
2023-02-27T22:44:24.415Z,103361.50
2023-02-27T22:46:52.993Z,103362.38
2023-02-27T22:49:21.909Z,103371.25
2023-02-27T22:51:51.970Z,103370.34
2023-02-27T22:54:20.328Z,103366.81
2023-02-27T22:56:50.418Z,103379.22
2023-02-27T22:59:18.287Z,103380.97
2023-02-27T23:01:46.602Z,103392.47
2023-02-27T23:04:17.016Z,103384.53
2023-02-27T23:06:44.945Z,103349.91
2023-02-27T23:09:15.149Z,103388.91
2023-02-27T23:11:43.146Z,103395.97
2023-02-27T23:14:11.037Z,103388.00
2023-02-27T23:16:40.037Z,103396.78
2023-02-27T23:19:08.025Z,103394.97
2023-02-27T23:21:36.585Z,103390.50
2023-02-27T23:24:05.510Z,103387.75
2023-02-27T23:26:36.140Z,103389.47
2023-02-27T23:29:04.053Z,103397.34
2023-02-27T23:31:34.677Z,103398.16
2023-02-27T23:34:03.414Z,103400.75
2023-02-27T23:36:31.302Z,103385.56
2023-02-27T23:38:59.343Z,103404.09
2023-02-27T23:41:27.843Z,103419.97
2023-02-27T23:43:57.286Z,103412.81
2023-02-27T23:46:30.169Z,103418.97
2023-02-27T23:48:59.079Z,103422.47
2023-02-27T23:51:29.072Z,103425.09
2023-02-27T23:53:58.092Z,103422.44
2023-02-27T23:56:26.896Z,103425.88
2023-02-27T23:58:55.845Z,103431.19
